Time;durP1;ratioP1;P1;durP2;ratioP2;P2;SDS_P1;SDS_P2;PMS_P1;PMS_P2;Temp;Humidity;BMP_temperature;BMP_pressure;BME280_temperature;BME280_humidity;BME280_pressure;Samples;Min_cycle;Max_cycle;Signal;HPM_P1;HPM_P2
2022/09/02 00:01:23;;;;;;;3.83;1.50;;;16.90;99.90;;;;;;5049373;28;20033;-58
2022/09/02 00:03:49;;;;;;;1.85;1.40;;;16.90;99.90;;;;;;5048094;28;20090;-58
2022/09/02 00:06:15;;;;;;;3.05;1.60;;;16.90;19.40;;;;;;5048667;28;20045;-59
2022/09/02 00:08:41;;;;;;;4.22;1.77;;;17.20;1.00;;;;;;5044778;28;20087;-59
2022/09/02 00:11:11;;;;;;;3.25;1.50;;;16.90;1.00;;;;;;5049433;28;20037;-60
2022/09/02 00:13:37;;;;;;;2.30;1.25;;;16.90;1.00;;;;;;5047373;28;20044;-58
2022/09/02 00:16:04;;;;;;;3.20;1.48;;;16.90;99.90;;;;;;5029955;28;20466;-58
2022/09/02 00:18:29;;;;;;;3.72;1.38;;;16.80;99.90;;;;;;5016719;28;20376;-58
2022/09/02 00:20:55;;;;;;;1.83;1.40;;;16.80;99.90;;;;;;5031292;28;20075;-58
2022/09/02 00:23:21;;;;;;;6.38;1.42;;;16.80;99.90;;;;;;5042809;28;20375;-59
2022/09/02 00:25:47;;;;;;;2.08;1.30;;;16.70;99.90;;;;;;5049789;28;20116;-59
2022/09/02 00:28:14;;;;;;;5.72;1.40;;;16.80;99.90;;;;;;5041668;28;20124;-58
2022/09/02 00:30:43;;;;;;;4.68;1.60;;;16.70;99.90;;;;;;5047891;28;20041;-58
2022/09/02 00:33:09;;;;;;;2.92;1.40;;;16.70;99.90;;;;;;5024459;28;20128;-58
2022/09/02 00:35:35;;;;;;;1.98;1.20;;;16.70;99.90;;;;;;5032381;28;20502;-59
2022/09/02 00:38:01;;;;;;;2.65;1.50;;;16.60;99.90;;;;;;5023393;28;20498;-58
2022/09/02 00:40:27;;;;;;;1.88;1.42;;;16.60;99.90;;;;;;5049556;28;20079;-59
2022/09/02 00:42:53;;;;;;;2.08;1.48;;;16.60;99.90;;;;;;5049492;28;20033;-59
2022/09/02 00:45:20;;;;;;;3.78;1.67;;;16.60;99.90;;;;;;5038671;28;20032;-60
2022/09/02 00:47:49;;;;;;;3.10;1.40;;;16.50;99.90;;;;;;5047053;28;20033;-58
2022/09/02 00:50:17;;;;;;;1.58;1.33;;;16.50;99.90;;;;;;5046268;28;20505;-58
2022/09/02 00:52:52;;;;;;;8.18;1.55;;;16.50;99.90;;;;;;5047312;28;20064;-58
2022/09/02 00:55:30;;;;;;;7.97;1.60;;;16.50;99.90;;;;;;5049755;28;20055;-60
2022/09/02 00:58:03;;;;;;;5.00;1.25;;;16.50;99.90;;;;;;5040699;28;20029;-58
2022/09/02 01:00:34;;;;;;;2.90;1.75;;;16.50;99.90;;;;;;5049770;28;20501;-59
2022/09/02 01:03:07;;;;;;;4.03;1.40;;;16.50;99.90;;;;;;5048240;28;20025;-59
2022/09/02 01:05:36;;;;;;;2.67;1.48;;;16.40;99.90;;;;;;5048777;28;20041;-58
2022/09/02 01:08:06;;;;;;;1.55;1.33;;;16.40;99.90;;;;;;5049617;28;20045;-58
2022/09/02 01:10:33;;;;;;;2.78;1.73;;;16.40;99.90;;;;;;5031559;28;20127;-59
2022/09/02 01:13:05;;;;;;;4.72;1.60;;;16.40;99.90;;;;;;5045736;28;20141;-59
2022/09/02 01:15:32;;;;;;;3.75;1.50;;;16.30;99.90;;;;;;5036166;28;20037;-58
2022/09/02 01:17:58;;;;;;;2.88;1.92;;;16.30;99.90;;;;;;5047519;28;20029;-59
2022/09/02 01:20:25;;;;;;;3.95;1.30;;;16.30;99.90;;;;;;5050007;28;20076;-59
2022/09/02 01:22:51;;;;;;;1.95;1.20;;;16.30;99.90;;;;;;5053073;28;20111;-58
2022/09/02 01:25:21;;;;;;;3.10;1.58;;;16.20;99.90;;;;;;5043830;28;20036;-60
2022/09/02 01:27:47;;;;;;;2.83;1.70;;;16.20;99.90;;;;;;5049306;28;20033;-58
2022/09/02 01:30:20;;;;;;;4.70;1.42;;;16.20;99.90;;;;;;5053134;28;20132;-59
2022/09/02 01:32:46;;;;;;;3.15;1.40;;;16.20;99.90;;;;;;5051434;28;20037;-58
2022/09/02 01:35:14;;;;;;;2.25;1.20;;;16.20;99.90;;;;;;5052208;28;20590;-59
2022/09/02 01:37:41;;;;;;;4.75;1.70;;;16.20;99.90;;;;;;5049407;28;20047;-58
2022/09/02 01:40:09;;;;;;;1.77;1.52;;;16.10;99.90;;;;;;5028075;28;20037;-59
2022/09/02 01:42:36;;;;;;;2.45;1.40;;;16.10;99.90;;;;;;5030919;28;20087;-58
2022/09/02 01:45:02;;;;;;;3.65;1.27;;;16.00;99.90;;;;;;5038461;28;20120;-59
2022/09/02 01:47:28;;;;;;;3.08;1.25;;;16.10;99.90;;;;;;5044492;28;20040;-58
2022/09/02 01:49:53;;;;;;;3.13;1.60;;;16.00;99.90;;;;;;5049160;28;20040;-59
2022/09/02 01:52:21;;;;;;;2.17;1.40;;;16.00;99.90;;;;;;5049721;28;20037;-58
2022/09/02 01:54:47;;;;;;;3.47;1.50;;;16.00;99.90;;;;;;5046804;28;20041;-59
2022/09/02 01:57:13;;;;;;;3.35;1.52;;;15.90;99.90;;;;;;5050342;28;20079;-59
2022/09/02 01:59:39;;;;;;;3.65;1.60;;;15.90;99.90;;;;;;5053239;28;20135;-58
2022/09/02 02:02:06;;;;;;;2.65;1.30;;;15.90;99.90;;;;;;5052567;28;20029;-58
2022/09/02 02:04:32;;;;;;;5.05;1.42;;;15.90;99.90;;;;;;5051844;28;20045;-58
2022/09/02 02:06:58;;;;;;;1.40;1.20;;;15.90;99.90;;;;;;5047513;28;20151;-59
2022/09/02 02:09:24;;;;;;;4.43;1.20;;;15.90;99.90;;;;;;5043359;28;20594;-58
2022/09/02 02:11:49;;;;;;;3.15;1.45;;;15.90;99.90;;;;;;5048797;28;20045;-58
2022/09/02 02:14:15;;;;;;;1.60;1.50;;;15.90;99.90;;;;;;5035585;28;20057;-59
2022/09/02 02:16:41;;;;;;;3.95;1.45;;;15.90;99.90;;;;;;5051553;28;20071;-58
2022/09/02 02:19:07;;;;;;;4.93;1.42;;;15.80;99.90;;;;;;5049444;28;20037;-59
2022/09/02 02:21:33;;;;;;;5.05;1.27;;;15.80;99.90;;;;;;5050284;28;20044;-59
2022/09/02 02:24:00;;;;;;;1.30;1.10;;;15.80;99.90;;;;;;5051470;28;20037;-58
2022/09/02 02:26:26;;;;;;;19.30;1.83;;;15.80;99.90;;;;;;5033803;28;20541;-59
2022/09/02 02:28:53;;;;;;;3.63;1.48;;;15.80;99.90;;;;;;5042418;28;20029;-59
2022/09/02 02:31:18;;;;;;;2.72;1.15;;;15.70;99.90;;;;;;5043951;28;20061;-59
2022/09/02 02:33:44;;;;;;;4.20;1.30;;;15.70;99.90;;;;;;5051201;28;20064;-58
2022/09/02 02:36:10;;;;;;;1.75;1.30;;;15.70;99.90;;;;;;5033681;28;20037;-58
2022/09/02 02:38:37;;;;;;;2.05;1.40;;;15.60;99.90;;;;;;5042150;28;20056;-59
2022/09/02 02:41:03;;;;;;;3.67;1.20;;;15.60;99.90;;;;;;5039342;28;20352;-58
2022/09/02 02:43:29;;;;;;;2.03;1.40;;;15.60;99.90;;;;;;5052591;28;20033;-59
2022/09/02 02:45:54;;;;;;;1.90;1.50;;;15.60;1.00;;;;;;5045184;28;20163;-60
2022/09/02 02:48:21;;;;;;;8.40;1.75;;;15.50;1.00;;;;;;5045788;28;20410;-59
2022/09/02 02:50:47;;;;;;;3.92;1.80;;;15.50;1.00;;;;;;5037815;28;20048;-59
2022/09/02 02:53:12;;;;;;;3.42;1.27;;;15.40;1.00;;;;;;5051714;28;20553;-58
2022/09/02 02:55:39;;;;;;;4.18;1.50;;;15.40;1.00;;;;;;5050265;28;20132;-58
2022/09/02 02:58:05;;;;;;;4.13;1.45;;;15.40;1.00;;;;;;5027539;28;20049;-58
2022/09/02 03:00:32;;;;;;;3.58;1.20;;;15.30;74.10;;;;;;5040456;28;20041;-59
2022/09/02 03:03:04;;;;;;;2.38;1.60;;;15.30;99.90;;;;;;5049858;28;20490;-58
2022/09/02 03:05:34;;;;;;;4.22;1.50;;;15.30;99.90;;;;;;5046557;28;20072;-60
2022/09/02 03:08:01;;;;;;;4.45;1.98;;;15.30;99.90;;;;;;5050145;28;20041;-58
2022/09/02 03:10:27;;;;;;;2.25;1.60;;;15.20;99.90;;;;;;5037273;28;20098;-59
2022/09/02 03:12:53;;;;;;;4.70;1.55;;;15.20;99.90;;;;;;5050694;28;20048;-59
2022/09/02 03:15:19;;;;;;;1.77;1.30;;;15.20;99.90;;;;;;5050919;28;20124;-58
2022/09/02 03:17:48;;;;;;;5.97;1.35;;;15.20;99.90;;;;;;5039204;28;20056;-58
2022/09/02 03:20:16;;;;;;;1.60;1.20;;;15.10;99.90;;;;;;5028607;28;20048;-58
2022/09/02 03:22:45;;;;;;;4.50;1.70;;;15.10;99.90;;;;;;5050739;28;20490;-58
2022/09/02 03:25:12;;;;;;;3.38;1.30;;;15.10;1.00;;;;;;5051231;28;20032;-59
2022/09/02 03:27:39;;;;;;;5.90;1.83;;;15.10;1.00;;;;;;5029132;28;20055;-59
2022/09/02 03:30:10;;;;;;;8.60;1.73;;;15.10;1.00;;;;;;5051767;28;20123;-58
2022/09/02 03:32:36;;;;;;;2.63;1.52;;;15.10;1.00;;;;;;5049344;28;20041;-58
2022/09/02 03:35:03;;;;;;;5.50;1.50;;;15.00;1.00;;;;;;5050510;28;20569;-58
2022/09/02 03:37:29;;;;;;;2.92;1.80;;;15.00;1.00;;;;;;5029795;28;20553;-60
2022/09/02 03:39:54;;;;;;;1.45;1.30;;;15.00;2.30;;;;;;5046751;28;20175;-58
2022/09/02 03:42:20;;;;;;;2.38;1.60;;;15.00;29.50;;;;;;5039895;28;20517;-59
2022/09/02 03:44:46;;;;;;;3.58;1.52;;;15.00;62.90;;;;;;5048033;28;20033;-58
2022/09/02 03:47:13;;;;;;;2.15;1.50;;;15.10;92.40;;;;;;5031813;28;21197;-59
2022/09/02 03:49:39;;;;;;;4.03;1.67;;;14.90;99.90;;;;;;5049495;28;20037;-58
2022/09/02 03:52:05;;;;;;;5.25;1.60;;;14.90;99.90;;;;;;5043691;28;20083;-58
2022/09/02 03:54:31;;;;;;;3.20;1.67;;;14.90;99.90;;;;;;5050967;28;20482;-58
2022/09/02 03:56:57;;;;;;;3.22;1.73;;;14.80;99.90;;;;;;5048902;28;20043;-58
2022/09/02 03:59:23;;;;;;;2.40;1.80;;;14.80;99.90;;;;;;5029336;28;20041;-59
2022/09/02 04:01:50;;;;;;;5.70;1.83;;;14.80;99.90;;;;;;5041292;28;20047;-59
2022/09/02 04:04:17;;;;;;;2.83;1.77;;;14.80;99.90;;;;;;5023274;28;20059;-58
2022/09/02 04:06:42;;;;;;;4.45;1.60;;;14.80;99.90;;;;;;5047114;28;20429;-58
2022/09/02 04:09:08;;;;;;;6.28;2.20;;;14.80;99.90;;;;;;5038164;28;20029;-59
2022/09/02 04:11:33;;;;;;;2.90;1.45;;;14.80;99.90;;;;;;5047586;28;20071;-58
2022/09/02 04:13:59;;;;;;;1.50;1.40;;;14.80;99.90;;;;;;5048862;28;20543;-58
2022/09/02 04:16:27;;;;;;;3.78;1.42;;;14.80;1.00;;;;;;5050112;28;20115;-58
2022/09/02 04:18:57;;;;;;;1.50;1.40;;;14.80;1.00;;;;;;5046901;28;20164;-59
2022/09/02 04:21:24;;;;;;;3.55;1.67;;;14.80;1.00;;;;;;5038440;28;20470;-59
2022/09/02 04:23:51;;;;;;;2.08;1.60;;;14.80;1.00;;;;;;5046504;28;20036;-60
2022/09/02 04:26:19;;;;;;;3.72;1.67;;;14.80;1.00;;;;;;5043857;28;20033;-57
2022/09/02 04:28:46;;;;;;;2.13;1.50;;;14.70;1.00;;;;;;5040432;28;20068;-58
2022/09/02 04:31:14;;;;;;;4.28;1.90;;;14.80;1.00;;;;;;5032693;28;20402;-59
2022/09/02 04:33:40;;;;;;;3.47;1.70;;;14.80;1.00;;;;;;5042502;28;20486;-59
2022/09/02 04:36:08;;;;;;;1.75;1.50;;;14.70;1.00;;;;;;5050005;28;20029;-59
2022/09/02 04:38:35;;;;;;;4.50;1.73;;;14.70;1.00;;;;;;5020643;28;20513;-59
2022/09/02 04:41:05;;;;;;;6.28;1.80;;;14.70;1.00;;;;;;5049117;28;20094;-59
2022/09/02 04:43:30;;;;;;;2.05;1.58;;;14.70;13.70;;;;;;5047036;28;20048;-58
2022/09/02 04:45:56;;;;;;;2.28;1.58;;;14.70;50.10;;;;;;5050971;28;20033;-58
2022/09/02 04:48:22;;;;;;;5.15;1.90;;;14.60;80.70;;;;;;5030943;28;20051;-58
2022/09/02 04:50:48;;;;;;;3.70;1.70;;;14.60;99.90;;;;;;5053868;28;20490;-59
2022/09/02 04:53:14;;;;;;;4.55;2.00;;;14.60;99.90;;;;;;5053221;28;20502;-58
2022/09/02 04:55:41;;;;;;;4.47;1.60;;;14.60;99.90;;;;;;5044517;28;20041;-59
2022/09/02 04:58:08;;;;;;;2.42;1.50;;;14.60;99.90;;;;;;5052111;28;20486;-59
2022/09/02 05:00:37;;;;;;;4.35;1.90;;;14.60;99.90;;;;;;5053253;28;20045;-58
2022/09/02 05:03:04;;;;;;;7.82;1.90;;;14.60;99.90;;;;;;5054685;28;20041;-58
2022/09/02 05:05:29;;;;;;;5.93;1.90;;;14.70;99.90;;;;;;5057245;28;20044;-60
2022/09/02 05:07:55;;;;;;;4.35;1.90;;;14.60;99.90;;;;;;5045090;28;20056;-59
2022/09/02 05:10:21;;;;;;;6.50;1.92;;;14.60;99.90;;;;;;5065697;28;20551;-59
2022/09/02 05:12:46;;;;;;;2.63;1.80;;;14.60;99.90;;;;;;5058912;28;20037;-59
2022/09/02 05:15:12;;;;;;;3.45;1.75;;;14.50;1.00;;;;;;5058865;28;20409;-58
2022/09/02 05:17:38;;;;;;;2.05;1.85;;;14.50;1.00;;;;;;5056417;28;20543;-59
2022/09/02 05:20:06;;;;;;;2.55;1.48;;;14.60;1.00;;;;;;5057475;28;20647;-59
2022/09/02 05:22:32;;;;;;;4.20;2.08;;;14.50;1.00;;;;;;5065315;28;21202;-58
2022/09/02 05:24:58;;;;;;;3.42;1.70;;;14.60;1.00;;;;;;5056678;28;20039;-59
2022/09/02 05:27:24;;;;;;;6.63;1.88;;;14.60;1.00;;;;;;5037806;28;20049;-59
2022/09/02 05:29:54;;;;;;;4.22;1.52;;;14.60;6.30;;;;;;5039779;28;20517;-60
2022/09/02 05:32:19;;;;;;;5.55;2.03;;;14.50;69.70;;;;;;5052986;28;20045;-59
2022/09/02 05:34:45;;;;;;;2.00;1.70;;;14.60;99.60;;;;;;5049410;28;20091;-60
2022/09/02 05:37:11;;;;;;;2.53;1.60;;;14.60;99.90;;;;;;5050251;28;20040;-61
2022/09/02 05:39:36;;;;;;;2.83;2.00;;;14.60;99.90;;;;;;5048519;28;20040;-60
2022/09/02 05:42:02;;;;;;;2.65;1.50;;;14.60;99.90;;;;;;5053839;28;20733;-61
2022/09/02 05:44:30;;;;;;;2.58;1.92;;;14.60;99.90;;;;;;5031626;28;20045;-61
2022/09/02 05:46:55;;;;;;;6.63;1.70;;;14.60;99.90;;;;;;5052877;28;20033;-60
2022/09/02 05:49:21;;;;;;;2.25;1.80;;;14.60;99.90;;;;;;5047793;28;20043;-62
2022/09/02 05:51:52;;;;;;;5.65;1.65;;;14.70;99.90;;;;;;5048982;28;20041;-60
2022/09/02 05:54:23;;;;;;;3.45;1.80;;;14.70;99.90;;;;;;5034320;28;20076;-60
2022/09/02 05:56:52;;;;;;;4.55;1.40;;;14.70;99.90;;;;;;5051248;28;20033;-60
2022/09/02 05:59:19;;;;;;;2.85;1.58;;;15.10;99.90;;;;;;5030500;28;20041;-61
2022/09/02 06:01:45;;;;;;;4.65;2.38;;;14.70;1.00;;;;;;5051134;28;20033;-60
2022/09/02 06:04:11;;;;;;;1.42;1.30;;;14.70;1.00;;;;;;5033856;28;20049;-60
2022/09/02 06:06:39;;;;;;;4.22;1.52;;;14.80;1.00;;;;;;5050908;28;20055;-60
2022/09/02 06:09:07;;;;;;;16.05;2.40;;;14.90;1.00;;;;;;5029086;28;20045;-61
2022/09/02 06:11:33;;;;;;;4.40;1.60;;;14.90;1.00;;;;;;5046934;28;20070;-60
2022/09/02 06:13:59;;;;;;;5.05;1.63;;;14.90;1.00;;;;;;5044851;28;20548;-61
2022/09/02 06:16:25;;;;;;;4.82;1.70;;;15.00;1.00;;;;;;5032638;28;20052;-60
2022/09/02 06:18:51;;;;;;;6.95;2.17;;;15.00;1.00;;;;;;5048600;28;20498;-60
2022/09/02 06:21:19;;;;;;;2.83;1.50;;;15.10;1.00;;;;;;5046867;28;20048;-60
2022/09/02 06:23:46;;;;;;;3.60;1.30;;;15.20;99.90;;;;;;5042658;28;20053;-59
2022/09/02 06:26:12;;;;;;;3.95;1.75;;;15.30;99.90;;;;;;5050911;28;20029;-62
2022/09/02 06:28:39;;;;;;;6.07;1.60;;;15.40;99.90;;;;;;5059472;28;20032;-61
2022/09/02 06:31:10;;;;;;;3.42;1.63;;;15.50;63.50;;;;;;5051686;28;20509;-61
2022/09/02 06:33:36;;;;;;;2.42;1.98;;;15.60;1.00;;;;;;5031045;28;20102;-60
2022/09/02 06:36:06;;;;;;;1.63;1.40;;;15.60;1.00;;;;;;5012383;28;20037;-60
2022/09/02 06:38:36;;;;;;;1.55;1.45;;;15.70;1.00;;;;;;5048024;28;20029;-60
2022/09/02 06:41:01;;;;;;;2.80;1.80;;;15.70;99.90;;;;;;5044007;28;20052;-60
2022/09/02 06:43:27;;;;;;;2.85;1.50;;;15.80;99.90;;;;;;5056544;28;20041;-59
2022/09/02 06:45:52;;;;;;;3.97;1.67;;;15.90;99.90;;;;;;5050743;28;20632;-60
2022/09/02 06:48:18;;;;;;;1.70;1.45;;;15.90;99.90;;;;;;5051090;28;20042;-63
2022/09/02 06:50:46;;;;;;;1.80;1.50;;;16.00;99.90;;;;;;5056877;28;20045;-61
2022/09/02 06:53:12;;;;;;;16.10;2.25;;;16.10;37.60;;;;;;5049597;28;20036;-60
2022/09/02 06:55:42;;;;;;;1.77;1.50;;;16.20;1.00;;;;;;5050279;28;20033;-61
2022/09/02 06:58:08;;;;;;;1.77;1.40;;;16.30;1.00;;;;;;5031071;28;20147;-61
2022/09/02 07:00:34;;;;;;;3.08;1.42;;;16.30;1.00;;;;;;5052322;28;20051;-61
2022/09/02 07:05:45;;;;;;;2.08;1.50;;;16.60;99.90;;;;;;5047655;28;20049;-61
2022/09/02 07:08:11;;;;;;;3.55;1.80;;;16.80;68.80;;;;;;5046792;28;20053;-61
2022/09/02 07:10:40;;;;;;;2.15;1.60;;;16.90;1.00;;;;;;5031264;28;20049;-60
2022/09/02 07:13:06;;;;;;;4.30;1.65;;;17.10;99.90;;;;;;5031036;28;20186;-60
2022/09/02 07:15:33;;;;;;;3.20;1.30;;;17.10;99.90;;;;;;5048245;28;20588;-61
2022/09/02 07:17:59;;;;;;;1.63;1.20;;;17.40;90.40;;;;;;5049204;28;20140;-61
2022/09/02 07:20:25;;;;;;;6.53;1.30;;;17.40;11.20;;;;;;5046793;28;22162;-61
2022/09/02 07:22:50;;;;;;;2.17;1.40;;;17.50;1.00;;;;;;5047796;28;20040;-60
2022/09/02 07:25:17;;;;;;;2.60;1.60;;;17.60;99.90;;;;;;5046382;28;20085;-60
2022/09/02 07:27:43;;;;;;;2.85;1.63;;;17.70;99.90;;;;;;5049968;28;20049;-60
2022/09/02 07:30:10;;;;;;;3.42;1.63;;;17.80;99.90;;;;;;5051652;28;20055;-61
2022/09/02 07:32:38;;;;;;;3.22;1.35;;;17.90;1.00;;;;;;5049818;28;20052;-61
2022/09/02 07:35:05;;;;;;;2.58;1.52;;;18.40;1.00;;;;;;5050937;28;20394;-60
2022/09/02 07:37:33;;;;;;;3.22;1.50;;;18.30;1.00;;;;;;5045887;28;20045;-59
2022/09/02 07:39:59;;;;;;;2.50;1.55;;;18.40;99.90;;;;;;5049684;28;20045;-58
2022/09/02 07:42:25;;;;;;;2.28;1.70;;;18.50;99.90;;;;;;5046324;28;20041;-61
2022/09/02 07:44:50;;;;;;;6.38;1.70;;;18.60;99.90;;;;;;5042299;28;20037;-61
2022/09/02 07:47:16;;;;;;;10.05;2.00;;;18.80;99.90;;;;;;5050680;28;20060;-60
2022/09/02 07:49:41;;;;;;;12.07;1.73;;;19.10;4.80;;;;;;5026855;28;20040;-60
2022/09/02 07:52:07;;;;;;;2.67;1.27;;;19.30;1.00;;;;;;5031025;28;20045;-61
2022/09/02 07:54:33;;;;;;;4.43;1.70;;;19.50;1.00;;;;;;5050718;28;20037;-58
2022/09/02 07:56:59;;;;;;;4.13;1.35;;;19.70;99.90;;;;;;5049365;28;20087;-61
2022/09/02 07:59:25;;;;;;;2.42;1.50;;;20.00;99.90;;;;;;5034104;28;20041;-60
2022/09/02 08:01:51;;;;;;;2.75;1.20;;;20.40;99.90;;;;;;5033752;28;20025;-61
2022/09/02 08:04:20;;;;;;;2.95;1.50;;;20.40;99.90;;;;;;5050024;28;20088;-61
2022/09/02 08:06:45;;;;;;;1.75;1.40;;;20.50;10.10;;;;;;5028636;28;20068;-62
2022/09/02 08:09:11;;;;;;;3.45;1.60;;;20.50;1.00;;;;;;5051319;28;20041;-60
2022/09/02 08:11:43;;;;;;;2.38;1.35;;;20.50;1.00;;;;;;5050943;28;20033;-61
2022/09/02 08:14:11;;;;;;;2.15;1.33;;;20.60;99.90;;;;;;5045947;28;20032;-62
2022/09/02 08:16:37;;;;;;;1.73;1.52;;;20.70;99.90;;;;;;5047485;28;20468;-63
2022/09/02 08:19:04;;;;;;;6.35;1.42;;;20.80;99.90;;;;;;5038075;28;20108;-61
2022/09/02 08:21:30;;;;;;;2.85;1.45;;;21.00;99.90;;;;;;5046851;28;20063;-62
2022/09/02 08:23:57;;;;;;;2.55;1.35;;;21.10;99.90;;;;;;5030845;28;20041;-61
2022/09/02 08:26:24;;;;;;;3.08;1.55;;;21.10;99.90;;;;;;5048180;28;20080;-61
2022/09/02 08:28:49;;;;;;;3.80;1.60;;;21.20;99.90;;;;;;5050189;28;20165;-61
2022/09/02 08:31:15;;;;;;;1.50;1.20;;;21.50;99.90;;;;;;5040405;28;20086;-62
2022/09/02 08:33:41;;;;;;;1.95;1.58;;;21.50;99.90;;;;;;5037893;28;20048;-61
2022/09/02 08:36:10;;;;;;;2.95;1.25;;;21.50;84.10;;;;;;5031734;28;20037;-60
2022/09/02 08:38:36;;;;;;;2.08;1.30;;;21.40;42.60;;;;;;5039942;28;20406;-61
2022/09/02 08:41:02;;;;;;;2.50;1.70;;;21.40;23.00;;;;;;5032477;28;20056;-60
2022/09/02 08:43:38;;;;;;;3.35;1.50;;;21.70;6.90;;;;;;5032182;28;20036;-61
2022/09/02 08:46:07;;;;;;;1.83;1.30;;;21.90;1.00;;;;;;5050873;28;20033;-61
2022/09/02 08:48:45;;;;;;;6.18;1.80;;;22.20;1.00;;;;;;5042960;28;20131;-61
2022/09/02 08:51:20;;;;;;;1.85;1.30;;;22.20;1.00;;;;;;5013323;28;20120;-61
2022/09/02 08:54:08;;;;;;;2.80;1.30;;;22.40;1.00;;;;;;5050007;28;20067;-61
2022/09/02 08:56:33;;;;;;;1.52;1.27;;;22.40;1.00;;;;;;5046912;28;20052;-60
2022/09/02 08:59:01;;;;;;;5.50;1.60;;;22.50;1.00;;;;;;5016332;28;20032;-61
2022/09/02 09:01:30;;;;;;;2.10;1.55;;;22.80;1.00;;;;;;5050417;28;20041;-63
2022/09/02 09:04:19;;;;;;;1.40;1.30;;;23.00;1.00;;;;;;5041045;28;20036;-61
2022/09/02 09:06:57;;;;;;;3.65;1.60;;;23.10;1.00;;;;;;5034569;28;20449;-61
2022/09/02 09:09:41;;;;;;;3.90;1.40;;;23.10;1.00;;;;;;5026037;28;20471;-61
2022/09/02 09:12:33;;;;;;;2.80;1.30;;;23.10;1.00;;;;;;5039137;28;20060;-62
2022/09/02 09:15:18;;;;;;;3.60;1.33;;;23.00;1.00;;;;;;5024272;28;20044;-62
2022/09/02 09:17:50;;;;;;;1.27;0.98;;;23.20;1.00;;;;;;5033416;28;20056;-62
2022/09/02 09:20:20;;;;;;;3.30;1.20;;;23.10;1.00;;;;;;5034753;28;20033;-60
2022/09/02 09:22:48;;;;;;;6.18;1.50;;;23.10;99.90;;;;;;5030504;28;20099;-61
2022/09/02 09:25:16;;;;;;;3.38;1.40;;;23.10;99.90;;;;;;5038292;28;20052;-61
2022/09/02 09:27:44;;;;;;;2.58;1.30;;;23.20;1.00;;;;;;5050342;28;20406;-61
2022/09/02 09:30:12;;;;;;;2.95;1.58;;;23.50;99.90;;;;;;5027224;28;20037;-60
2022/09/02 09:32:42;;;;;;;7.65;1.88;;;23.50;99.90;;;;;;5038404;28;20487;-61
2022/09/02 09:35:13;;;;;;;4.07;1.50;;;23.60;99.90;;;;;;5052016;28;20032;-61
2022/09/02 09:37:45;;;;;;;1.50;1.20;;;23.80;99.90;;;;;;5046563;28;20033;-61
2022/09/02 09:40:16;;;;;;;4.88;1.30;;;23.60;99.90;;;;;;5052804;28;20115;-61
2022/09/02 09:42:43;;;;;;;1.52;1.10;;;23.50;99.90;;;;;;5051854;28;20102;-61
2022/09/02 09:45:25;;;;;;;1.60;1.20;;;23.40;99.90;;;;;;5051979;28;20040;-61
2022/09/02 09:48:15;;;;;;;0.88;0.80;;;23.40;99.90;;;;;;5052237;28;20048;-61
2022/09/02 09:51:08;;;;;;;0.93;0.80;;;23.40;99.90;;;;;;5045553;28;20040;-62
2022/09/02 09:53:36;;;;;;;1.55;1.10;;;23.20;99.90;;;;;;5037607;28;20128;-59
2022/09/02 09:56:26;;;;;;;4.78;1.42;;;23.30;99.90;;;;;;5048733;28;20044;-60
2022/09/02 09:58:52;;;;;;;1.25;1.02;;;23.20;99.90;;;;;;5040951;28;20057;-59
2022/09/02 10:01:22;;;;;;;3.80;1.10;;;23.20;99.90;;;;;;5043987;28;20486;-60
2022/09/02 10:03:52;;;;;;;1.50;1.10;;;23.20;99.90;;;;;;5049447;28;20028;-59
2022/09/02 10:06:20;;;;;;;1.00;1.00;;;23.20;99.90;;;;;;5033509;28;20065;-59
2022/09/02 10:08:55;;;;;;;4.88;1.30;;;23.30;99.90;;;;;;5044781;28;20033;-59
2022/09/02 10:11:30;;;;;;;6.40;1.20;;;23.40;99.90;;;;;;5051393;28;20033;-59
2022/09/02 10:14:02;;;;;;;5.60;1.20;;;23.40;99.90;;;;;;5031737;28;20498;-59
2022/09/02 10:16:41;;;;;;;4.50;1.10;;;23.40;99.90;;;;;;5050628;28;20055;-61
2022/09/02 10:19:35;;;;;;;9.73;1.35;;;23.40;99.90;;;;;;5048226;28;20037;-60
2022/09/02 10:22:04;;;;;;;1.77;0.90;;;23.40;99.90;;;;;;5049177;28;20033;-59
2022/09/02 10:25:09;;;;;;;0.60;0.60;;;23.30;99.90;;;;;;5046030;28;20499;-60
2022/09/02 10:27:59;;;;;;;2.28;1.00;;;23.30;99.90;;;;;;5048700;28;20041;-59
2022/09/02 10:30:27;;;;;;;3.92;1.13;;;23.40;99.90;;;;;;5044501;28;20091;-60
2022/09/02 10:33:22;;;;;;;0.70;0.70;;;23.40;99.90;;;;;;5011026;28;20128;-61
2022/09/02 10:35:56;;;;;;;1.70;1.00;;;23.50;99.90;;;;;;5045388;28;20071;-61
2022/09/02 10:38:42;;;;;;;4.15;1.00;;;23.50;99.90;;;;;;5049192;28;20095;-61
2022/09/02 10:41:20;;;;;;;3.78;1.00;;;23.70;99.90;;;;;;5047883;28;20901;-61
2022/09/02 10:43:59;;;;;;;4.60;1.02;;;23.80;99.90;;;;;;5043841;28;20044;-60
2022/09/02 10:46:29;;;;;;;0.88;0.80;;;23.80;99.90;;;;;;5052146;28;20036;-60
2022/09/02 10:49:28;;;;;;;4.90;0.95;;;23.90;99.90;;;;;;5030198;28;20033;-60
2022/09/02 10:52:16;;;;;;;2.30;1.02;;;23.90;99.90;;;;;;5049040;28;20037;-61
2022/09/02 10:55:15;;;;;;;1.92;0.85;;;23.90;99.90;;;;;;5044939;28;20128;-60
2022/09/02 10:57:51;;;;;;;1.00;0.80;;;23.90;99.90;;;;;;5052183;28;20033;-60
2022/09/02 11:00:18;;;;;;;;;;;23.70;99.90;;;;;;5051583;28;20045;-60
2022/09/02 11:02:55;;;;;;;4.40;0.82;;;23.70;99.90;;;;;;5050105;28;20397;-60
2022/09/02 11:05:28;;;;;;;3.03;1.42;;;23.80;99.90;;;;;;5049319;28;20041;-60
2022/09/02 11:08:01;;;;;;;6.07;0.93;;;24.20;99.90;;;;;;5047756;28;20048;-60
2022/09/02 11:10:40;;;;;;;4.10;0.98;;;23.90;99.90;;;;;;5032341;28;20107;-62
2022/09/02 11:13:13;;;;;;;2.10;1.10;;;23.90;99.90;;;;;;5047720;28;20067;-62
2022/09/02 11:15:52;;;;;;;2.10;0.70;;;23.90;99.90;;;;;;5043727;28;20088;-61
2022/09/02 11:18:26;;;;;;;3.00;0.95;;;23.70;99.90;;;;;;5049107;28;20090;-61
2022/09/02 11:20:57;;;;;;;3.47;1.33;;;23.80;99.90;;;;;;5045567;28;20045;-60
2022/09/02 11:24:00;;;;;;;4.75;1.00;;;23.90;99.90;;;;;;5044371;28;20094;-61
2022/09/02 11:26:37;;;;;;;3.65;0.90;;;23.90;99.90;;;;;;5033446;28;20059;-62
2022/09/02 11:29:11;;;;;;;1.52;1.00;;;24.00;99.90;;;;;;5036477;28;20041;-61
2022/09/02 11:32:04;;;;;;;4.63;1.00;;;24.20;99.90;;;;;;5045332;28;20041;-61
2022/09/02 11:34:36;;;;;;;1.80;1.00;;;24.30;99.90;;;;;;5042108;28;20509;-61
2022/09/02 11:37:04;;;;;;;1.63;1.08;;;24.20;99.90;;;;;;5033605;28;20482;-62
2022/09/02 11:39:42;;;;;;;5.28;0.95;;;24.10;99.90;;;;;;5048592;28;20048;-62
2022/09/02 11:42:28;;;;;;;3.67;1.10;;;24.10;99.90;;;;;;5049642;28;20604;-61
2022/09/02 11:45:22;;;;;;;4.00;1.40;;;24.10;99.90;;;;;;5046410;28;20036;-61
2022/09/02 11:48:11;;;;;;;0.93;0.93;;;24.10;99.90;;;;;;5035991;28;20084;-60
2022/09/02 11:50:55;;;;;;;1.13;0.90;;;24.10;99.90;;;;;;5037890;28;20091;-60
2022/09/02 11:53:37;;;;;;;7.30;1.20;;;24.10;99.90;;;;;;5032276;28;20040;-66
2022/09/02 11:56:11;;;;;;;2.55;1.10;;;24.20;99.90;;;;;;5028778;28;20648;-61
2022/09/02 11:58:48;;;;;;;1.48;0.95;;;24.20;99.90;;;;;;5050883;28;20513;-61
2022/09/02 12:01:13;;;;;;;2.85;1.02;;;24.10;99.90;;;;;;5046590;28;20052;-61
2022/09/02 12:03:43;;;;;;;5.78;0.88;;;24.20;99.90;;;;;;5029653;28;20045;-60
2022/09/02 12:06:12;;;;;;;3.90;1.13;;;24.20;99.90;;;;;;5029772;28;21260;-61
2022/09/02 12:08:40;;;;;;;2.95;1.20;;;24.00;99.90;;;;;;5044452;28;20068;-60
2022/09/02 12:11:07;;;;;;;2.40;0.93;;;24.10;99.90;;;;;;5024926;28;20079;-60
2022/09/02 12:13:47;;;;;;;2.03;1.02;;;24.10;99.90;;;;;;5025402;28;20045;-59
2022/09/02 12:16:19;;;;;;;5.45;1.17;;;24.10;99.90;;;;;;5046742;28;20505;-59
2022/09/02 12:19:09;;;;;;;5.47;1.25;;;24.00;99.90;;;;;;5045764;28;20045;-61
2022/09/02 12:21:37;;;;;;;8.88;1.20;;;24.10;99.90;;;;;;5044135;28;20081;-60
2022/09/02 12:24:08;;;;;;;4.70;1.20;;;24.30;99.90;;;;;;5043862;28;20147;-60
2022/09/02 12:26:39;;;;;;;2.63;0.82;;;24.30;99.90;;;;;;5046700;28;20044;-61
2022/09/02 12:29:17;;;;;;;3.22;1.10;;;24.20;99.90;;;;;;5042165;28;20516;-61
2022/09/02 12:31:48;;;;;;;2.97;1.30;;;24.30;99.90;;;;;;5045721;28;20094;-58
2022/09/02 12:34:19;;;;;;;1.45;1.10;;;24.30;99.90;;;;;;5044082;28;20025;-61
2022/09/02 12:36:51;;;;;;;4.38;1.00;;;24.20;99.90;;;;;;5045610;28;20048;-61
2022/09/02 12:39:29;;;;;;;1.20;1.10;;;24.30;99.90;;;;;;5045863;28;20036;-60
2022/09/02 12:42:09;;;;;;;1.75;1.02;;;24.40;99.90;;;;;;5048185;28;20394;-60
2022/09/02 12:44:59;;;;;;;3.83;1.10;;;24.50;99.90;;;;;;5039470;28;20039;-60
2022/09/02 12:47:44;;;;;;;4.10;1.15;;;24.40;99.90;;;;;;5044542;28;20049;-60
2022/09/02 12:50:19;;;;;;;3.50;1.10;;;24.40;99.90;;;;;;5045267;28;20171;-59
2022/09/02 12:52:48;;;;;;;2.47;1.00;;;24.30;99.90;;;;;;5038080;28;20426;-60
2022/09/02 12:55:28;;;;;;;3.72;1.10;;;24.30;99.90;;;;;;5036265;28;20037;-59
2022/09/02 12:58:08;;;;;;;2.00;1.00;;;24.40;99.90;;;;;;5043944;28;20081;-59
2022/09/02 13:01:04;;;;;;;3.72;1.40;;;24.50;99.90;;;;;;5049225;28;20497;-59
2022/09/02 13:03:59;;;;;;;5.57;1.77;;;24.50;99.90;;;;;;5042275;28;20033;-61
2022/09/02 13:06:45;;;;;;;2.85;1.20;;;24.50;99.90;;;;;;5030197;28;20767;-60
2022/09/02 13:09:46;;;;;;;4.32;1.17;;;25.00;99.90;;;;;;5046016;28;20035;-58